sensor_id;sensor_type;location;lat;lon;timestamp;temperature;humidity
66752;SHT31;53663;42.676;23.238;2022-08-19T00:00:19;23.01;54.55
66752;SHT31;53663;42.676;23.238;2022-08-19T00:02:45;22.95;54.34
66752;SHT31;53663;42.676;23.238;2022-08-19T00:05:13;22.91;54.54
66752;SHT31;53663;42.676;23.238;2022-08-19T00:07:42;22.77;55.37
66752;SHT31;53663;42.676;23.238;2022-08-19T00:10:09;22.81;55.15
66752;SHT31;53663;42.676;23.238;2022-08-19T00:12:35;22.66;55.41
66752;SHT31;53663;42.676;23.238;2022-08-19T00:15:01;22.70;55.21
66752;SHT31;53663;42.676;23.238;2022-08-19T00:17:27;22.70;55.14
66752;SHT31;53663;42.676;23.238;2022-08-19T00:19:52;22.76;54.87
66752;SHT31;53663;42.676;23.238;2022-08-19T00:22:18;22.77;55.20
66752;SHT31;53663;42.676;23.238;2022-08-19T00:24:46;22.71;55.31
66752;SHT31;53663;42.676;23.238;2022-08-19T00:27:12;22.67;55.63
66752;SHT31;53663;42.676;23.238;2022-08-19T00:29:38;22.63;55.50
66752;SHT31;53663;42.676;23.238;2022-08-19T00:32:05;22.71;55.82
66752;SHT31;53663;42.676;23.238;2022-08-19T00:34:30;22.64;55.61
66752;SHT31;53663;42.676;23.238;2022-08-19T00:36:56;22.59;55.93
66752;SHT31;53663;42.676;23.238;2022-08-19T00:39:22;22.56;56.15
66752;SHT31;53663;42.676;23.238;2022-08-19T00:41:49;22.55;56.18
66752;SHT31;53663;42.676;23.238;2022-08-19T00:44:24;22.53;55.76
66752;SHT31;53663;42.676;23.238;2022-08-19T00:46:51;22.47;55.71
66752;SHT31;53663;42.676;23.238;2022-08-19T00:51:45;22.43;55.29
66752;SHT31;53663;42.676;23.238;2022-08-19T00:54:12;22.28;55.63
66752;SHT31;53663;42.676;23.238;2022-08-19T00:56:38;22.36;55.48
66752;SHT31;53663;42.676;23.238;2022-08-19T00:59:04;22.36;55.67
66752;SHT31;53663;42.676;23.238;2022-08-19T01:01:39;22.39;54.76
66752;SHT31;53663;42.676;23.238;2022-08-19T01:04:06;22.40;55.19
66752;SHT31;53663;42.676;23.238;2022-08-19T01:06:33;22.37;55.89
66752;SHT31;53663;42.676;23.238;2022-08-19T01:09:00;22.33;55.59
66752;SHT31;53663;42.676;23.238;2022-08-19T01:11:27;22.30;55.53
66752;SHT31;53663;42.676;23.238;2022-08-19T01:13:54;22.28;55.54
66752;SHT31;53663;42.676;23.238;2022-08-19T01:16:21;22.25;55.69
66752;SHT31;53663;42.676;23.238;2022-08-19T01:18:48;22.20;56.40
66752;SHT31;53663;42.676;23.238;2022-08-19T01:21:36;22.23;56.05
66752;SHT31;53663;42.676;23.238;2022-08-19T01:24:04;22.09;56.45
66752;SHT31;53663;42.676;23.238;2022-08-19T01:26:29;22.13;56.43
66752;SHT31;53663;42.676;23.238;2022-08-19T01:28:57;22.15;56.53
66752;SHT31;53663;42.676;23.238;2022-08-19T01:31:25;22.19;56.88
66752;SHT31;53663;42.676;23.238;2022-08-19T01:33:53;22.10;56.77
66752;SHT31;53663;42.676;23.238;2022-08-19T01:38:50;21.75;58.62
66752;SHT31;53663;42.676;23.238;2022-08-19T01:41:17;21.68;59.08
66752;SHT31;53663;42.676;23.238;2022-08-19T01:43:43;21.61;59.04
66752;SHT31;53663;42.676;23.238;2022-08-19T01:46:09;21.37;59.35
66752;SHT31;53663;42.676;23.238;2022-08-19T01:48:41;21.39;59.53
66752;SHT31;53663;42.676;23.238;2022-08-19T01:51:09;21.44;59.75
66752;SHT31;53663;42.676;23.238;2022-08-19T01:53:36;21.49;59.17
66752;SHT31;53663;42.676;23.238;2022-08-19T01:56:03;21.53;58.99
66752;SHT31;53663;42.676;23.238;2022-08-19T01:58:36;21.51;59.17
66752;SHT31;53663;42.676;23.238;2022-08-19T02:01:04;21.37;59.42
66752;SHT31;53663;42.676;23.238;2022-08-19T02:03:30;21.46;59.32
66752;SHT31;53663;42.676;23.238;2022-08-19T02:06:00;21.46;59.04
66752;SHT31;53663;42.676;23.238;2022-08-19T02:08:29;21.26;59.51
66752;SHT31;53663;42.676;23.238;2022-08-19T02:10:55;21.16;60.02
66752;SHT31;53663;42.676;23.238;2022-08-19T02:13:22;21.30;59.60
66752;SHT31;53663;42.676;23.238;2022-08-19T02:15:47;21.30;60.31
66752;SHT31;53663;42.676;23.238;2022-08-19T02:18:14;21.27;60.85
66752;SHT31;53663;42.676;23.238;2022-08-19T02:20:40;21.31;60.27
66752;SHT31;53663;42.676;23.238;2022-08-19T02:23:07;21.27;61.12
66752;SHT31;53663;42.676;23.238;2022-08-19T02:25:33;21.29;60.96
66752;SHT31;53663;42.676;23.238;2022-08-19T02:27:58;21.29;60.63
66752;SHT31;53663;42.676;23.238;2022-08-19T02:30:24;21.20;60.64
66752;SHT31;53663;42.676;23.238;2022-08-19T02:32:51;21.14;60.78
66752;SHT31;53663;42.676;23.238;2022-08-19T02:35:17;21.14;60.86
66752;SHT31;53663;42.676;23.238;2022-08-19T02:37:43;21.07;60.81
66752;SHT31;53663;42.676;23.238;2022-08-19T02:40:29;21.03;60.94
66752;SHT31;53663;42.676;23.238;2022-08-19T02:42:55;20.99;61.01
66752;SHT31;53663;42.676;23.238;2022-08-19T02:45:21;21.03;60.90
66752;SHT31;53663;42.676;23.238;2022-08-19T02:47:47;20.85;61.23
66752;SHT31;53663;42.676;23.238;2022-08-19T02:50:12;20.68;61.56
66752;SHT31;53663;42.676;23.238;2022-08-19T02:52:38;20.78;61.80
66752;SHT31;53663;42.676;23.238;2022-08-19T02:55:05;20.81;61.75
66752;SHT31;53663;42.676;23.238;2022-08-19T02:57:31;20.86;61.39
66752;SHT31;53663;42.676;23.238;2022-08-19T02:59:57;20.86;61.32
66752;SHT31;53663;42.676;23.238;2022-08-19T03:02:22;20.81;61.45
66752;SHT31;53663;42.676;23.238;2022-08-19T03:04:48;20.79;61.96
66752;SHT31;53663;42.676;23.238;2022-08-19T03:07:15;20.71;62.20
66752;SHT31;53663;42.676;23.238;2022-08-19T03:09:41;20.78;62.31
66752;SHT31;53663;42.676;23.238;2022-08-19T03:12:08;20.75;62.54
66752;SHT31;53663;42.676;23.238;2022-08-19T03:14:34;20.72;62.63
66752;SHT31;53663;42.676;23.238;2022-08-19T03:17:01;20.71;62.37
66752;SHT31;53663;42.676;23.238;2022-08-19T03:19:26;20.67;61.96
66752;SHT31;53663;42.676;23.238;2022-08-19T03:21:53;20.62;62.53
66752;SHT31;53663;42.676;23.238;2022-08-19T03:24:19;20.58;61.99
66752;SHT31;53663;42.676;23.238;2022-08-19T03:26:48;20.54;62.21
66752;SHT31;53663;42.676;23.238;2022-08-19T03:29:15;20.52;62.49
66752;SHT31;53663;42.676;23.238;2022-08-19T03:31:42;20.47;62.35
66752;SHT31;53663;42.676;23.238;2022-08-19T03:34:10;20.44;62.74
66752;SHT31;53663;42.676;23.238;2022-08-19T03:36:37;20.31;63.33
66752;SHT31;53663;42.676;23.238;2022-08-19T03:39:03;20.23;63.57
66752;SHT31;53663;42.676;23.238;2022-08-19T03:41:31;20.28;63.52
66752;SHT31;53663;42.676;23.238;2022-08-19T03:43:58;20.31;63.38
66752;SHT31;53663;42.676;23.238;2022-08-19T03:46:27;20.20;63.73
66752;SHT31;53663;42.676;23.238;2022-08-19T03:48:55;20.20;64.00
66752;SHT31;53663;42.676;23.238;2022-08-19T03:51:28;20.34;63.71
66752;SHT31;53663;42.676;23.238;2022-08-19T03:53:55;20.44;63.33
66752;SHT31;53663;42.676;23.238;2022-08-19T03:56:21;20.49;63.57
66752;SHT31;53663;42.676;23.238;2022-08-19T03:58:47;20.58;63.29
66752;SHT31;53663;42.676;23.238;2022-08-19T04:01:16;20.58;63.83
66752;SHT31;53663;42.676;23.238;2022-08-19T04:03:44;20.59;63.53
66752;SHT31;53663;42.676;23.238;2022-08-19T04:06:17;20.64;63.33
66752;SHT31;53663;42.676;23.238;2022-08-19T04:08:44;20.69;63.95
66752;SHT31;53663;42.676;23.238;2022-08-19T04:11:13;20.71;63.34
66752;SHT31;53663;42.676;23.238;2022-08-19T04:13:40;20.78;63.40
66752;SHT31;53663;42.676;23.238;2022-08-19T04:16:07;20.86;63.30
66752;SHT31;53663;42.676;23.238;2022-08-19T04:18:34;20.91;63.72
66752;SHT31;53663;42.676;23.238;2022-08-19T04:21:00;20.96;63.54
66752;SHT31;53663;42.676;23.238;2022-08-19T04:23:27;21.04;63.31
66752;SHT31;53663;42.676;23.238;2022-08-19T04:25:54;21.18;63.22
66752;SHT31;53663;42.676;23.238;2022-08-19T04:28:19;21.29;62.79
66752;SHT31;53663;42.676;23.238;2022-08-19T04:30:47;21.39;62.45
66752;SHT31;53663;42.676;23.238;2022-08-19T04:33:15;21.50;62.97
66752;SHT31;53663;42.676;23.238;2022-08-19T04:35:44;21.64;63.00
66752;SHT31;53663;42.676;23.238;2022-08-19T04:38:11;21.78;62.30
66752;SHT31;53663;42.676;23.238;2022-08-19T04:40:46;21.81;61.48
66752;SHT31;53663;42.676;23.238;2022-08-19T04:43:31;22.08;60.31
66752;SHT31;53663;42.676;23.238;2022-08-19T04:45:57;22.70;58.79
66752;SHT31;53663;42.676;23.238;2022-08-19T04:48:23;23.52;54.48
66752;SHT31;53663;42.676;23.238;2022-08-19T04:50:56;24.37;53.02
66752;SHT31;53663;42.676;23.238;2022-08-19T04:53:29;25.07;50.68
66752;SHT31;53663;42.676;23.238;2022-08-19T04:55:56;25.92;48.07
66752;SHT31;53663;42.676;23.238;2022-08-19T04:58:23;26.19;49.08
66752;SHT31;53663;42.676;23.238;2022-08-19T05:00:50;26.73;47.27
66752;SHT31;53663;42.676;23.238;2022-08-19T05:03:16;27.16;44.73
66752;SHT31;53663;42.676;23.238;2022-08-19T05:05:46;28.24;42.73
66752;SHT31;53663;42.676;23.238;2022-08-19T05:08:15;29.06;40.54
66752;SHT31;53663;42.676;23.238;2022-08-19T05:10:49;29.47;40.05
66752;SHT31;53663;42.676;23.238;2022-08-19T05:13:16;30.13;38.14
66752;SHT31;53663;42.676;23.238;2022-08-19T05:15:42;30.61;37.43
66752;SHT31;53663;42.676;23.238;2022-08-19T05:18:08;31.01;36.65
66752;SHT31;53663;42.676;23.238;2022-08-19T05:20:52;31.01;36.68
66752;SHT31;53663;42.676;23.238;2022-08-19T05:23:37;31.32;36.42
66752;SHT31;53663;42.676;23.238;2022-08-19T05:26:03;31.83;35.27
66752;SHT31;53663;42.676;23.238;2022-08-19T05:28:29;32.07;34.68
66752;SHT31;53663;42.676;23.238;2022-08-19T05:30:55;32.16;34.53
66752;SHT31;53663;42.676;23.238;2022-08-19T05:33:21;31.69;35.74
66752;SHT31;53663;42.676;23.238;2022-08-19T05:35:48;31.14;36.38
66752;SHT31;53663;42.676;23.238;2022-08-19T05:38:15;30.52;37.57
66752;SHT31;53663;42.676;23.238;2022-08-19T05:40:41;30.16;38.69
66752;SHT31;53663;42.676;23.238;2022-08-19T05:43:10;29.84;38.30
66752;SHT31;53663;42.676;23.238;2022-08-19T05:45:40;29.06;40.87
66752;SHT31;53663;42.676;23.238;2022-08-19T05:48:06;29.04;41.16
66752;SHT31;53663;42.676;23.238;2022-08-19T05:50:32;29.20;40.70
66752;SHT31;53663;42.676;23.238;2022-08-19T05:52:57;29.14;40.47
66752;SHT31;53663;42.676;23.238;2022-08-19T05:55:23;28.96;42.03
66752;SHT31;53663;42.676;23.238;2022-08-19T05:57:49;28.85;42.60
66752;SHT31;53663;42.676;23.238;2022-08-19T06:00:15;28.48;43.65
66752;SHT31;53663;42.676;23.238;2022-08-19T06:02:41;28.38;43.43
66752;SHT31;53663;42.676;23.238;2022-08-19T06:05:07;28.45;43.85
66752;SHT31;53663;42.676;23.238;2022-08-19T06:07:38;27.92;44.62
66752;SHT31;53663;42.676;23.238;2022-08-19T06:10:07;27.79;44.82
66752;SHT31;53663;42.676;23.238;2022-08-19T06:12:33;27.67;45.21
66752;SHT31;53663;42.676;23.238;2022-08-19T06:15:03;28.07;44.17
66752;SHT31;53663;42.676;23.238;2022-08-19T06:17:29;28.45;43.78
66752;SHT31;53663;42.676;23.238;2022-08-19T06:19:56;28.65;43.20
66752;SHT31;53663;42.676;23.238;2022-08-19T06:22:22;28.78;43.82
66752;SHT31;53663;42.676;23.238;2022-08-19T06:24:48;28.99;42.46
66752;SHT31;53663;42.676;23.238;2022-08-19T06:27:18;29.16;42.19
66752;SHT31;53663;42.676;23.238;2022-08-19T06:29:44;29.03;42.49
66752;SHT31;53663;42.676;23.238;2022-08-19T06:32:12;28.85;42.19
66752;SHT31;53663;42.676;23.238;2022-08-19T06:34:37;28.82;43.41
66752;SHT31;53663;42.676;23.238;2022-08-19T06:37:04;28.89;43.61
66752;SHT31;53663;42.676;23.238;2022-08-19T06:39:38;29.02;42.33
66752;SHT31;53663;42.676;23.238;2022-08-19T06:42:05;28.96;42.46
66752;SHT31;53663;42.676;23.238;2022-08-19T06:44:35;28.86;43.14
66752;SHT31;53663;42.676;23.238;2022-08-19T06:47:03;28.80;43.20
66752;SHT31;53663;42.676;23.238;2022-08-19T06:49:29;28.79;42.96
66752;SHT31;53663;42.676;23.238;2022-08-19T06:51:57;28.79;43.37
66752;SHT31;53663;42.676;23.238;2022-08-19T06:54:23;28.62;43.96
66752;SHT31;53663;42.676;23.238;2022-08-19T06:56:49;29.02;43.72
66752;SHT31;53663;42.676;23.238;2022-08-19T06:59:17;28.93;42.50
66752;SHT31;53663;42.676;23.238;2022-08-19T07:01:46;28.75;43.24
66752;SHT31;53663;42.676;23.238;2022-08-19T07:04:15;29.03;42.59
66752;SHT31;53663;42.676;23.238;2022-08-19T07:06:41;29.33;41.50
66752;SHT31;53663;42.676;23.238;2022-08-19T07:09:08;28.95;42.95
66752;SHT31;53663;42.676;23.238;2022-08-19T07:11:34;29.49;41.75
66752;SHT31;53663;42.676;23.238;2022-08-19T07:14:01;29.40;42.14
66752;SHT31;53663;42.676;23.238;2022-08-19T07:16:27;29.50;42.53
66752;SHT31;53663;42.676;23.238;2022-08-19T07:18:53;30.08;40.58
66752;SHT31;53663;42.676;23.238;2022-08-19T07:21:25;30.32;40.86
66752;SHT31;53663;42.676;23.238;2022-08-19T07:23:56;30.61;39.76
66752;SHT31;53663;42.676;23.238;2022-08-19T07:26:27;30.01;41.36
66752;SHT31;53663;42.676;23.238;2022-08-19T07:28:54;30.05;40.58
66752;SHT31;53663;42.676;23.238;2022-08-19T07:31:22;30.50;39.79
66752;SHT31;53663;42.676;23.238;2022-08-19T07:33:49;29.98;41.92
66752;SHT31;53663;42.676;23.238;2022-08-19T07:36:19;30.35;40.72
66752;SHT31;53663;42.676;23.238;2022-08-19T07:38:46;30.92;38.63
66752;SHT31;53663;42.676;23.238;2022-08-19T07:41:19;31.11;38.27
66752;SHT31;53663;42.676;23.238;2022-08-19T07:43:46;30.25;40.23
66752;SHT31;53663;42.676;23.238;2022-08-19T07:46:13;30.64;39.60
66752;SHT31;53663;42.676;23.238;2022-08-19T07:48:40;30.70;40.12
66752;SHT31;53663;42.676;23.238;2022-08-19T07:51:07;30.29;39.24
66752;SHT31;53663;42.676;23.238;2022-08-19T07:53:34;30.30;40.49
66752;SHT31;53663;42.676;23.238;2022-08-19T07:56:00;30.91;38.53
66752;SHT31;53663;42.676;23.238;2022-08-19T07:58:31;30.95;38.24
66752;SHT31;53663;42.676;23.238;2022-08-19T08:00:58;29.89;39.87
66752;SHT31;53663;42.676;23.238;2022-08-19T08:03:24;30.02;40.26
66752;SHT31;53663;42.676;23.238;2022-08-19T08:06:10;29.68;40.37
66752;SHT31;53663;42.676;23.238;2022-08-19T08:08:54;30.10;39.42
66752;SHT31;53663;42.676;23.238;2022-08-19T08:11:55;30.13;39.39
66752;SHT31;53663;42.676;23.238;2022-08-19T08:14:26;30.59;38.81
66752;SHT31;53663;42.676;23.238;2022-08-19T08:16:52;31.22;37.33
66752;SHT31;53663;42.676;23.238;2022-08-19T08:19:19;31.87;36.67
66752;SHT31;53663;42.676;23.238;2022-08-19T08:21:46;32.23;35.57
66752;SHT31;53663;42.676;23.238;2022-08-19T08:24:12;32.20;36.46
66752;SHT31;53663;42.676;23.238;2022-08-19T08:26:38;32.13;35.94
66752;SHT31;53663;42.676;23.238;2022-08-19T08:29:04;32.48;35.29
66752;SHT31;53663;42.676;23.238;2022-08-19T08:31:30;32.88;34.95
66752;SHT31;53663;42.676;23.238;2022-08-19T08:33:56;33.23;33.27
66752;SHT31;53663;42.676;23.238;2022-08-19T08:36:21;33.10;32.98
66752;SHT31;53663;42.676;23.238;2022-08-19T08:38:47;33.26;32.60
66752;SHT31;53663;42.676;23.238;2022-08-19T08:44:21;33.44;32.28
66752;SHT31;53663;42.676;23.238;2022-08-19T08:46:50;32.65;32.12
66752;SHT31;53663;42.676;23.238;2022-08-19T08:49:26;33.29;30.33
66752;SHT31;53663;42.676;23.238;2022-08-19T08:54:50;33.47;29.44
66752;SHT31;53663;42.676;23.238;2022-08-19T08:58:00;33.71;30.22
66752;SHT31;53663;42.676;23.238;2022-08-19T09:02:50;33.36;30.61
66752;SHT31;53663;42.676;23.238;2022-08-19T09:05:16;33.73;30.63
66752;SHT31;53663;42.676;23.238;2022-08-19T09:08:07;34.00;28.85
66752;SHT31;53663;42.676;23.238;2022-08-19T09:10:38;34.40;27.61
66752;SHT31;53663;42.676;23.238;2022-08-19T09:15:47;34.40;29.44
66752;SHT31;53663;42.676;23.238;2022-08-19T09:18:13;34.23;29.55
66752;SHT31;53663;42.676;23.238;2022-08-19T09:20:39;34.56;27.24
66752;SHT31;53663;42.676;23.238;2022-08-19T09:23:05;34.33;29.50
66752;SHT31;53663;42.676;23.238;2022-08-19T09:25:30;34.11;29.21
66752;SHT31;53663;42.676;23.238;2022-08-19T09:28:00;34.40;27.20
66752;SHT31;53663;42.676;23.238;2022-08-19T09:30:32;34.60;27.33
66752;SHT31;53663;42.676;23.238;2022-08-19T09:32:58;34.86;27.84
66752;SHT31;53663;42.676;23.238;2022-08-19T09:35:26;35.27;26.24
66752;SHT31;53663;42.676;23.238;2022-08-19T09:37:52;35.27;27.01
66752;SHT31;53663;42.676;23.238;2022-08-19T09:40:18;35.59;25.93
66752;SHT31;53663;42.676;23.238;2022-08-19T09:42:45;35.55;25.68
66752;SHT31;53663;42.676;23.238;2022-08-19T09:45:17;35.83;25.96
66752;SHT31;53663;42.676;23.238;2022-08-19T09:47:43;35.65;26.46
66752;SHT31;53663;42.676;23.238;2022-08-19T09:50:10;35.92;26.08
66752;SHT31;53663;42.676;23.238;2022-08-19T09:52:37;35.54;28.65
66752;SHT31;53663;42.676;23.238;2022-08-19T09:55:04;35.15;26.18
66752;SHT31;53663;42.676;23.238;2022-08-19T09:57:30;35.42;24.09
66752;SHT31;53663;42.676;23.238;2022-08-19T09:59:56;35.56;25.36
66752;SHT31;53663;42.676;23.238;2022-08-19T10:02:21;35.61;25.97
66752;SHT31;53663;42.676;23.238;2022-08-19T10:04:47;35.25;25.86
66752;SHT31;53663;42.676;23.238;2022-08-19T10:07:31;35.75;24.60
66752;SHT31;53663;42.676;23.238;2022-08-19T10:09:56;35.86;25.34
66752;SHT31;53663;42.676;23.238;2022-08-19T10:12:22;35.94;25.83
66752;SHT31;53663;42.676;23.238;2022-08-19T10:14:48;35.93;25.32
66752;SHT31;53663;42.676;23.238;2022-08-19T10:17:13;35.44;25.31
66752;SHT31;53663;42.676;23.238;2022-08-19T10:19:40;35.66;24.05
66752;SHT31;53663;42.676;23.238;2022-08-19T10:22:06;35.56;24.71
66752;SHT31;53663;42.676;23.238;2022-08-19T10:24:33;35.65;24.53
66752;SHT31;53663;42.676;23.238;2022-08-19T10:27:00;35.85;23.67
66752;SHT31;53663;42.676;23.238;2022-08-19T10:29:29;35.92;24.83
66752;SHT31;53663;42.676;23.238;2022-08-19T10:31:56;36.04;24.20
66752;SHT31;53663;42.676;23.238;2022-08-19T10:34:23;36.19;23.35
66752;SHT31;53663;42.676;23.238;2022-08-19T10:36:48;35.88;23.70
66752;SHT31;53663;42.676;23.238;2022-08-19T10:39:15;36.13;24.02
66752;SHT31;53663;42.676;23.238;2022-08-19T10:41:40;36.17;24.71
66752;SHT31;53663;42.676;23.238;2022-08-19T10:44:10;35.64;23.49
66752;SHT31;53663;42.676;23.238;2022-08-19T10:46:38;36.10;23.69
66752;SHT31;53663;42.676;23.238;2022-08-19T10:49:08;36.29;24.56
66752;SHT31;53663;42.676;23.238;2022-08-19T10:51:33;36.78;21.82
66752;SHT31;53663;42.676;23.238;2022-08-19T10:54:18;36.71;22.95
66752;SHT31;53663;42.676;23.238;2022-08-19T10:56:44;36.87;22.91
66752;SHT31;53663;42.676;23.238;2022-08-19T10:59:24;36.89;23.25
66752;SHT31;53663;42.676;23.238;2022-08-19T11:02:00;36.63;23.30
66752;SHT31;53663;42.676;23.238;2022-08-19T11:04:27;36.67;24.10
66752;SHT31;53663;42.676;23.238;2022-08-19T11:06:52;36.72;23.64
66752;SHT31;53663;42.676;23.238;2022-08-19T11:09:23;36.89;23.67
66752;SHT31;53663;42.676;23.238;2022-08-19T11:11:50;36.79;23.41
66752;SHT31;53663;42.676;23.238;2022-08-19T11:14:18;36.81;24.17
66752;SHT31;53663;42.676;23.238;2022-08-19T11:16:45;36.95;24.24
66752;SHT31;53663;42.676;23.238;2022-08-19T11:19:11;36.92;24.07
66752;SHT31;53663;42.676;23.238;2022-08-19T11:21:42;37.07;25.21
66752;SHT31;53663;42.676;23.238;2022-08-19T11:24:15;36.98;24.65
66752;SHT31;53663;42.676;23.238;2022-08-19T11:26:42;37.14;23.35
66752;SHT31;53663;42.676;23.238;2022-08-19T11:29:10;36.43;23.42
66752;SHT31;53663;42.676;23.238;2022-08-19T11:31:40;36.74;23.12
66752;SHT31;53663;42.676;23.238;2022-08-19T11:34:10;36.84;23.75
66752;SHT31;53663;42.676;23.238;2022-08-19T11:36:38;36.72;23.71
66752;SHT31;53663;42.676;23.238;2022-08-19T11:39:06;37.05;23.68
66752;SHT31;53663;42.676;23.238;2022-08-19T11:41:32;37.15;23.97
66752;SHT31;53663;42.676;23.238;2022-08-19T11:43:58;36.13;23.89
66752;SHT31;53663;42.676;23.238;2022-08-19T11:46:25;34.96;24.60
66752;SHT31;53663;42.676;23.238;2022-08-19T11:48:52;35.44;24.44
66752;SHT31;53663;42.676;23.238;2022-08-19T11:51:21;35.71;24.06
66752;SHT31;53663;42.676;23.238;2022-08-19T11:53:48;35.21;25.08
66752;SHT31;53663;42.676;23.238;2022-08-19T11:56:15;34.97;24.49
66752;SHT31;53663;42.676;23.238;2022-08-19T11:58:40;35.42;24.38
66752;SHT31;53663;42.676;23.238;2022-08-19T12:01:12;35.81;23.72
66752;SHT31;53663;42.676;23.238;2022-08-19T12:03:39;35.96;24.63
66752;SHT31;53663;42.676;23.238;2022-08-19T12:06:10;36.23;24.10
66752;SHT31;53663;42.676;23.238;2022-08-19T12:08:38;35.56;24.39
66752;SHT31;53663;42.676;23.238;2022-08-19T12:11:03;35.51;24.21
66752;SHT31;53663;42.676;23.238;2022-08-19T12:13:30;36.10;24.08
66752;SHT31;53663;42.676;23.238;2022-08-19T12:15:56;36.30;24.54
66752;SHT31;53663;42.676;23.238;2022-08-19T12:18:23;36.31;24.14
66752;SHT31;53663;42.676;23.238;2022-08-19T12:20:51;36.00;24.23
66752;SHT31;53663;42.676;23.238;2022-08-19T12:23:17;36.16;23.79
66752;SHT31;53663;42.676;23.238;2022-08-19T12:25:45;36.15;23.86
66752;SHT31;53663;42.676;23.238;2022-08-19T12:28:21;36.06;24.56
66752;SHT31;53663;42.676;23.238;2022-08-19T12:30:48;36.24;24.04
66752;SHT31;53663;42.676;23.238;2022-08-19T12:33:15;36.41;24.30
66752;SHT31;53663;42.676;23.238;2022-08-19T12:35:42;36.37;24.19
66752;SHT31;53663;42.676;23.238;2022-08-19T12:38:09;36.26;24.71
66752;SHT31;53663;42.676;23.238;2022-08-19T12:40:35;36.15;24.67
66752;SHT31;53663;42.676;23.238;2022-08-19T12:43:00;36.29;24.21
66752;SHT31;53663;42.676;23.238;2022-08-19T12:45:26;36.30;24.14
66752;SHT31;53663;42.676;23.238;2022-08-19T12:47:52;36.31;25.57
66752;SHT31;53663;42.676;23.238;2022-08-19T12:50:18;36.36;25.22
66752;SHT31;53663;42.676;23.238;2022-08-19T12:52:47;36.30;24.01
66752;SHT31;53663;42.676;23.238;2022-08-19T12:55:13;36.27;23.81
66752;SHT31;53663;42.676;23.238;2022-08-19T12:57:38;35.94;24.43
66752;SHT31;53663;42.676;23.238;2022-08-19T13:00:11;35.76;24.84
66752;SHT31;53663;42.676;23.238;2022-08-19T13:02:43;35.81;25.01
66752;SHT31;53663;42.676;23.238;2022-08-19T13:05:13;35.52;24.77
66752;SHT31;53663;42.676;23.238;2022-08-19T13:07:40;35.37;25.08
66752;SHT31;53663;42.676;23.238;2022-08-19T13:10:08;35.44;25.03
66752;SHT31;53663;42.676;23.238;2022-08-19T13:12:34;35.30;25.18
66752;SHT31;53663;42.676;23.238;2022-08-19T13:15:00;35.11;24.94
66752;SHT31;53663;42.676;23.238;2022-08-19T13:17:25;35.01;25.74
66752;SHT31;53663;42.676;23.238;2022-08-19T13:19:52;35.04;24.98
66752;SHT31;53663;42.676;23.238;2022-08-19T13:22:17;34.90;25.40
66752;SHT31;53663;42.676;23.238;2022-08-19T13:24:43;34.87;26.39
66752;SHT31;53663;42.676;23.238;2022-08-19T13:27:09;35.13;25.52
66752;SHT31;53663;42.676;23.238;2022-08-19T13:29:34;35.10;25.63
66752;SHT31;53663;42.676;23.238;2022-08-19T13:32:19;35.27;25.56
66752;SHT31;53663;42.676;23.238;2022-08-19T13:35:04;35.28;26.95
66752;SHT31;53663;42.676;23.238;2022-08-19T13:37:30;35.24;26.44
66752;SHT31;53663;42.676;23.238;2022-08-19T13:40:16;35.44;25.97
66752;SHT31;53663;42.676;23.238;2022-08-19T13:42:44;35.56;25.29
66752;SHT31;53663;42.676;23.238;2022-08-19T13:45:12;35.59;24.58
66752;SHT31;53663;42.676;23.238;2022-08-19T13:47:38;35.51;25.04
66752;SHT31;53663;42.676;23.238;2022-08-19T13:50:14;35.64;25.76
66752;SHT31;53663;42.676;23.238;2022-08-19T13:52:41;35.44;25.56
66752;SHT31;53663;42.676;23.238;2022-08-19T13:55:07;35.34;25.24
66752;SHT31;53663;42.676;23.238;2022-08-19T13:57:34;35.38;25.25
66752;SHT31;53663;42.676;23.238;2022-08-19T14:00:01;35.39;25.53
66752;SHT31;53663;42.676;23.238;2022-08-19T14:02:30;35.51;24.93
66752;SHT31;53663;42.676;23.238;2022-08-19T14:04:55;35.39;24.87
66752;SHT31;53663;42.676;23.238;2022-08-19T14:07:21;34.96;25.30
66752;SHT31;53663;42.676;23.238;2022-08-19T14:09:49;34.73;25.97
66752;SHT31;53663;42.676;23.238;2022-08-19T14:12:19;34.59;26.39
66752;SHT31;53663;42.676;23.238;2022-08-19T14:14:46;34.46;26.45
66752;SHT31;53663;42.676;23.238;2022-08-19T14:17:11;34.32;26.48
66752;SHT31;53663;42.676;23.238;2022-08-19T14:19:37;34.42;26.38
66752;SHT31;53663;42.676;23.238;2022-08-19T14:22:02;34.59;26.53
66752;SHT31;53663;42.676;23.238;2022-08-19T14:24:28;34.67;26.30
66752;SHT31;53663;42.676;23.238;2022-08-19T14:26:54;34.71;26.04
66752;SHT31;53663;42.676;23.238;2022-08-19T14:29:19;34.57;26.05
66752;SHT31;53663;42.676;23.238;2022-08-19T14:31:45;34.49;26.49
66752;SHT31;53663;42.676;23.238;2022-08-19T14:34:10;34.55;27.01
66752;SHT31;53663;42.676;23.238;2022-08-19T14:36:38;34.56;26.26
66752;SHT31;53663;42.676;23.238;2022-08-19T14:39:04;34.46;26.26
66752;SHT31;53663;42.676;23.238;2022-08-19T14:41:29;34.50;25.80
66752;SHT31;53663;42.676;23.238;2022-08-19T14:43:58;34.49;25.78
66752;SHT31;53663;42.676;23.238;2022-08-19T14:46:26;34.29;26.08
66752;SHT31;53663;42.676;23.238;2022-08-19T14:48:52;34.28;26.06
66752;SHT31;53663;42.676;23.238;2022-08-19T14:51:20;34.25;26.26
66752;SHT31;53663;42.676;23.238;2022-08-19T14:53:46;33.87;26.90
66752;SHT31;53663;42.676;23.238;2022-08-19T14:56:16;33.80;26.73
66752;SHT31;53663;42.676;23.238;2022-08-19T14:58:42;33.95;26.65
66752;SHT31;53663;42.676;23.238;2022-08-19T15:01:09;33.84;27.26
66752;SHT31;53663;42.676;23.238;2022-08-19T15:03:37;34.06;27.72
66752;SHT31;53663;42.676;23.238;2022-08-19T15:06:04;34.04;27.33
66752;SHT31;53663;42.676;23.238;2022-08-19T15:08:31;34.13;26.84
66752;SHT31;53663;42.676;23.238;2022-08-19T15:10:58;34.11;26.78
66752;SHT31;53663;42.676;23.238;2022-08-19T15:13:25;34.08;26.82
66752;SHT31;53663;42.676;23.238;2022-08-19T15:15:51;33.90;27.46
66752;SHT31;53663;42.676;23.238;2022-08-19T15:18:17;33.97;26.93
66752;SHT31;53663;42.676;23.238;2022-08-19T15:20:45;33.95;27.26
66752;SHT31;53663;42.676;23.238;2022-08-19T15:23:12;33.88;27.20
66752;SHT31;53663;42.676;23.238;2022-08-19T15:25:38;33.82;27.63
66752;SHT31;53663;42.676;23.238;2022-08-19T15:28:03;33.65;27.85
66752;SHT31;53663;42.676;23.238;2022-08-19T15:30:29;33.68;27.90
66752;SHT31;53663;42.676;23.238;2022-08-19T15:32:56;33.64;27.98
66752;SHT31;53663;42.676;23.238;2022-08-19T15:35:23;33.67;27.88